Аэропорт
Нижневартовск (USNN)

 USNN / NJC
ЗЦ Екатеринбург
Тюмень (USTV)
Тюмень (USTV)
 60.94930, 76.48360  / 177 ft

 USNN 122100Z 26001MPS CAVOK 13/13 Q1009 R03/0///65 NOSIG RMK QFE753
 TAF USNN 122000Z 1221/1321 29003MPS 5000 BR SCT020 TEMPO 1221/1224 VRB01MPS 2100 BR FEW004 BKN016 FM130000 19003G08MPS 9999 SCT030 BECMG 1305/1306 26005G12MPS TEMPO 1306/1312 5000 -SHRA BKN020CB
USNN_j_0220
показать схемы
Название сценария Тип сценария Flight Simulator 9 Flight Simulator X Prepar3D v2 Prepar3D v3 Prepar3D v4 Prepar3D v5 xPlane
Nizhnevartovsk USNN (P3Dv4.4+) бесплатный
Nizhnevartovsk USNN by Aleksei Nelaev бесплатный


2020 © VATRUS division (Privacy Policy)